createdAt,value
2023-05-04T00:01:20.257Z,1.80
2023-05-04T00:03:46.930Z,2.30
2023-05-04T00:06:13.483Z,2.88
2023-05-04T00:08:39.802Z,2.72
2023-05-04T00:11:06.140Z,2.30
2023-05-04T00:13:32.495Z,2.05
2023-05-04T00:15:58.875Z,2.00
2023-05-04T00:18:25.246Z,1.98
2023-05-04T00:20:51.594Z,2.28
2023-05-04T00:23:17.930Z,2.90
2023-05-04T00:25:44.331Z,2.35
2023-05-04T00:28:10.641Z,2.60
2023-05-04T00:30:37.205Z,2.72
2023-05-04T00:33:03.632Z,2.10
2023-05-04T00:35:31.534Z,2.42
2023-05-04T00:37:57.912Z,2.35
2023-05-04T00:40:24.311Z,2.33
2023-05-04T00:42:50.622Z,2.00
2023-05-04T00:45:17.084Z,2.60
2023-05-04T00:47:43.483Z,2.47
2023-05-04T00:50:11.154Z,2.00
2023-05-04T00:52:38.250Z,2.47
2023-05-04T00:55:04.937Z,2.50
2023-05-04T00:57:31.410Z,2.70
2023-05-04T00:59:57.891Z,2.90
2023-05-04T01:02:24.251Z,2.55
2023-05-04T01:04:50.751Z,2.25
2023-05-04T01:07:29.615Z,2.60
2023-05-04T01:10:03.520Z,2.58
2023-05-04T01:12:35.738Z,1.90
2023-05-04T01:15:03.427Z,2.75
2023-05-04T01:17:29.964Z,1.95
2023-05-04T01:19:56.453Z,2.25
2023-05-04T01:22:23.312Z,2.85
2023-05-04T01:24:50.539Z,3.03
2023-05-04T01:27:25.274Z,1.92
2023-05-04T01:30:02.216Z,2.47
2023-05-04T01:32:30.947Z,2.70
2023-05-04T01:34:59.093Z,2.92
2023-05-04T01:37:25.596Z,1.98
2023-05-04T01:39:52.219Z,2.30
2023-05-04T01:42:18.630Z,2.13
2023-05-04T01:44:45.072Z,2.08
2023-05-04T01:47:11.595Z,2.33
2023-05-04T01:49:37.988Z,2.55
2023-05-04T01:52:04.805Z,2.33
2023-05-04T01:54:31.181Z,2.28
2023-05-04T01:56:57.519Z,2.30
2023-05-04T01:59:23.927Z,2.58
2023-05-04T02:01:50.637Z,2.22
2023-05-04T02:04:17.077Z,2.60
2023-05-04T02:06:43.442Z,2.20
2023-05-04T02:09:09.796Z,2.67
2023-05-04T02:11:36.130Z,2.33
2023-05-04T02:14:02.457Z,2.80
2023-05-04T02:16:28.941Z,2.75
2023-05-04T02:18:55.452Z,2.25
2023-05-04T02:21:21.803Z,3.20
2023-05-04T02:23:48.185Z,2.40
2023-05-04T02:26:14.622Z,3.30
2023-05-04T02:28:40.979Z,3.47
2023-05-04T02:31:08.807Z,2.60
2023-05-04T02:33:35.182Z,2.47
2023-05-04T02:36:01.614Z,4.00
2023-05-04T02:38:27.939Z,2.38
2023-05-04T02:40:54.339Z,2.72
2023-05-04T02:43:20.668Z,3.03
2023-05-04T02:45:47.123Z,2.63
2023-05-04T02:48:13.532Z,2.90
2023-05-04T02:50:39.895Z,3.00
2023-05-04T02:53:06.258Z,2.63
2023-05-04T02:55:32.617Z,2.63
2023-05-04T02:57:58.974Z,2.63
2023-05-04T03:00:25.532Z,2.75
2023-05-04T03:02:51.881Z,2.50
2023-05-04T03:05:18.303Z,3.05
2023-05-04T03:07:45.230Z,3.72
2023-05-04T03:10:11.866Z,3.10
2023-05-04T03:12:38.262Z,3.25
2023-05-04T03:15:05.048Z,3.22
2023-05-04T03:17:31.557Z,3.03
2023-05-04T03:19:58.196Z,2.80
2023-05-04T03:22:26.038Z,3.20
2023-05-04T03:24:52.400Z,3.25
2023-05-04T03:27:18.856Z,3.15
2023-05-04T03:29:45.772Z,3.67
2023-05-04T03:32:13.221Z,2.95
2023-05-04T03:34:40.540Z,3.45
2023-05-04T03:37:07.894Z,3.53
2023-05-04T03:39:34.229Z,3.22
2023-05-04T03:42:01.135Z,3.35
2023-05-04T03:44:27.456Z,2.80
2023-05-04T03:46:53.786Z,3.28
2023-05-04T03:49:20.329Z,3.17
2023-05-04T03:51:47.126Z,3.95
2023-05-04T03:54:13.604Z,3.80
2023-05-04T03:56:39.976Z,3.45
2023-05-04T03:59:06.669Z,3.45
2023-05-04T04:01:33.258Z,3.78
2023-05-04T04:03:59.768Z,3.97
2023-05-04T04:06:26.219Z,3.33
2023-05-04T04:08:52.592Z,3.58
2023-05-04T04:11:18.921Z,3.35
2023-05-04T04:13:45.248Z,4.47
2023-05-04T04:16:11.685Z,3.67
2023-05-04T04:18:38.666Z,3.80
2023-05-04T04:21:05.070Z,3.67
2023-05-04T04:23:31.410Z,4.18
2023-05-04T04:25:58.154Z,4.00
2023-05-04T04:28:24.511Z,3.60
2023-05-04T04:30:51.514Z,4.22
2023-05-04T04:33:17.877Z,3.95
2023-05-04T04:35:44.269Z,3.55
2023-05-04T04:38:10.602Z,3.47
2023-05-04T04:40:36.935Z,4.25
2023-05-04T04:43:03.265Z,4.10
2023-05-04T04:45:29.960Z,3.80
2023-05-04T04:47:57.557Z,3.70
2023-05-04T04:50:23.891Z,3.65
2023-05-04T04:52:50.276Z,4.32
2023-05-04T04:55:17.167Z,3.70
2023-05-04T04:57:43.535Z,3.80
2023-05-04T05:00:10.491Z,4.57
2023-05-04T05:02:37.516Z,4.65
2023-05-04T05:05:04.290Z,4.32
2023-05-04T05:07:30.743Z,4.65
2023-05-04T05:09:57.106Z,4.25
2023-05-04T05:12:23.526Z,4.65
2023-05-04T05:14:50.706Z,5.60
2023-05-04T05:17:18.146Z,5.07
2023-05-04T05:19:44.530Z,4.25
2023-05-04T05:22:10.936Z,4.85
2023-05-04T05:24:37.406Z,4.93
2023-05-04T05:27:03.720Z,4.80
2023-05-04T05:29:30.050Z,4.38
2023-05-04T05:31:56.382Z,4.63
2023-05-04T05:34:22.884Z,5.05
2023-05-04T05:36:49.402Z,4.47
2023-05-04T05:39:16.243Z,5.30
2023-05-04T05:41:43.208Z,5.10
2023-05-04T05:44:11.120Z,5.95
2023-05-04T05:46:39.378Z,5.70
2023-05-04T05:49:07.252Z,5.15
2023-05-04T05:51:33.677Z,5.85
2023-05-04T05:54:00.218Z,7.05
2023-05-04T05:56:26.555Z,5.20
2023-05-04T05:58:52.996Z,5.68
2023-05-04T06:01:19.525Z,5.60
2023-05-04T06:03:46.087Z,4.70
2023-05-04T06:06:12.683Z,5.45
2023-05-04T06:08:39.006Z,6.13
2023-05-04T06:11:06.112Z,6.68
2023-05-04T06:13:32.485Z,6.28
2023-05-04T06:15:58.840Z,5.93
2023-05-04T06:18:25.368Z,5.88
2023-05-04T06:20:58.190Z,6.10
2023-05-04T06:23:26.162Z,5.70
2023-05-04T06:25:52.592Z,5.72
2023-05-04T06:28:18.993Z,6.20
2023-05-04T06:30:45.574Z,5.63
2023-05-04T06:33:12.037Z,5.63
2023-05-04T06:35:38.435Z,5.30
2023-05-04T06:38:04.785Z,6.03
2023-05-04T06:40:31.111Z,5.50
2023-05-04T06:42:57.545Z,5.78
2023-05-04T06:45:24.290Z,5.35
2023-05-04T06:47:52.299Z,5.38
2023-05-04T06:50:18.675Z,6.65
2023-05-04T06:52:46.326Z,5.40
2023-05-04T06:55:13.661Z,5.57
2023-05-04T06:57:40.107Z,4.65
2023-05-04T07:00:08.332Z,5.50
2023-05-04T07:02:34.785Z,5.65
2023-05-04T07:05:02.035Z,4.85
2023-05-04T07:07:28.414Z,5.60
2023-05-04T07:09:54.822Z,4.47
2023-05-04T07:12:21.210Z,5.63
2023-05-04T07:14:47.567Z,5.13
2023-05-04T07:17:14.093Z,5.10
2023-05-04T07:19:40.497Z,4.68
2023-05-04T07:22:06.885Z,4.70
2023-05-04T07:24:33.269Z,4.55
2023-05-04T07:26:59.624Z,5.35
2023-05-04T07:29:26.341Z,5.28
2023-05-04T07:31:52.800Z,5.63
2023-05-04T07:34:20.114Z,5.30
2023-05-04T07:36:46.726Z,6.00
2023-05-04T07:39:13.372Z,5.13
2023-05-04T07:41:39.730Z,4.95
2023-05-04T07:44:08.401Z,5.32
2023-05-04T07:46:34.810Z,5.65
2023-05-04T07:49:01.187Z,5.65
2023-05-04T07:51:27.582Z,5.10
2023-05-04T07:53:53.938Z,5.20
2023-05-04T07:56:20.385Z,4.88
2023-05-04T07:58:47.443Z,5.30
2023-05-04T08:01:13.814Z,4.63
2023-05-04T08:03:40.133Z,4.75
2023-05-04T08:06:08.110Z,4.10
2023-05-04T08:08:34.426Z,4.57
2023-05-04T08:11:16.023Z,5.38
2023-05-04T08:13:46.462Z,4.35
2023-05-04T08:16:13.034Z,4.90
2023-05-04T08:18:39.475Z,4.68
2023-05-04T08:21:05.876Z,4.70
2023-05-04T08:23:33.388Z,4.03
2023-05-04T08:26:03.883Z,4.75
2023-05-04T08:28:31.058Z,4.60
2023-05-04T08:30:57.533Z,4.65
2023-05-04T08:33:23.973Z,4.70
2023-05-04T08:35:50.409Z,4.88
2023-05-04T08:38:22.150Z,3.83
2023-05-04T08:40:50.476Z,4.05
2023-05-04T08:43:17.135Z,4.28
2023-05-04T08:45:43.564Z,5.20
2023-05-04T08:48:09.937Z,4.68
2023-05-04T08:50:37.978Z,4.18
2023-05-04T08:53:07.016Z,4.53
2023-05-04T08:55:36.386Z,5.05
2023-05-04T08:58:07.927Z,4.78
2023-05-04T09:00:34.746Z,6.07
2023-05-04T09:03:03.489Z,5.50
2023-05-04T09:05:30.403Z,4.63
2023-05-04T09:07:56.930Z,5.22
2023-05-04T09:10:25.855Z,4.55
2023-05-04T09:12:55.831Z,5.40
2023-05-04T09:15:22.738Z,6.45
2023-05-04T09:18:07.229Z,5.38
2023-05-04T09:20:44.861Z,6.25
2023-05-04T09:23:11.491Z,5.78
2023-05-04T09:25:50.802Z,6.63
2023-05-04T09:28:18.214Z,5.82
2023-05-04T09:30:45.895Z,6.13
2023-05-04T09:33:12.387Z,6.35
2023-05-04T09:35:40.686Z,6.35
2023-05-04T09:38:07.340Z,6.03
2023-05-04T09:40:43.397Z,6.07
2023-05-04T09:43:10.593Z,6.00
2023-05-04T09:45:44.986Z,6.93
2023-05-04T09:48:29.051Z,6.28
2023-05-04T09:50:59.869Z,5.82
2023-05-04T09:53:28.378Z,7.10
2023-05-04T09:56:16.624Z,6.22
2023-05-04T09:58:45.465Z,6.40
2023-05-04T10:01:12.269Z,5.10
2023-05-04T10:03:38.792Z,7.80
2023-05-04T10:06:05.883Z,5.80
2023-05-04T10:08:33.173Z,5.07
2023-05-04T10:10:59.858Z,4.78
2023-05-04T10:13:26.330Z,4.60
2023-05-04T10:16:16.842Z,4.78
2023-05-04T10:19:07.921Z,5.05
2023-05-04T10:21:55.560Z,4.25
2023-05-04T10:25:00.183Z,5.45
2023-05-04T10:27:50.310Z,5.07
2023-05-04T10:30:18.528Z,5.65
2023-05-04T10:32:45.006Z,4.65
2023-05-04T10:35:11.515Z,4.30
2023-05-04T10:37:38.528Z,4.57
2023-05-04T10:40:08.626Z,4.35
2023-05-04T10:42:42.840Z,4.22
2023-05-04T10:45:10.136Z,5.07
2023-05-04T10:47:40.028Z,4.22
2023-05-04T10:50:08.779Z,4.10
2023-05-04T10:52:54.244Z,4.15
2023-05-04T10:55:22.188Z,4.15
2023-05-04T10:57:55.762Z,4.28
2023-05-04T11:00:22.906Z,4.25
2023-05-04T11:02:49.614Z,3.72
2023-05-04T11:05:20.608Z,4.18
2023-05-04T11:07:50.731Z,3.75
2023-05-04T11:10:23.137Z,3.72
2023-05-04T11:12:49.590Z,3.90
2023-05-04T11:15:16.718Z,3.83
2023-05-04T11:17:50.968Z,4.15
2023-05-04T11:20:25.292Z,3.78
2023-05-04T11:22:52.829Z,3.72
2023-05-04T11:25:29.287Z,4.13
2023-05-04T11:27:56.500Z,4.03
2023-05-04T11:30:31.273Z,4.65
2023-05-04T11:33:00.052Z,3.75
2023-05-04T11:35:26.559Z,4.22
2023-05-04T11:37:53.533Z,4.10
2023-05-04T11:40:22.798Z,4.90
2023-05-04T11:42:52.462Z,4.57
2023-05-04T11:45:23.645Z,3.92
2023-05-04T11:47:51.997Z,3.92
2023-05-04T11:50:20.635Z,4.00
2023-05-04T11:52:47.783Z,4.57
2023-05-04T11:55:28.429Z,4.85
2023-05-04T11:57:59.644Z,4.00
2023-05-04T12:00:38.596Z,4.43
2023-05-04T12:03:09.401Z,4.72
2023-05-04T12:05:36.740Z,4.32
2023-05-04T12:08:04.287Z,4.40
2023-05-04T12:10:34.320Z,4.45
2023-05-04T12:13:03.895Z,3.80
2023-05-04T12:15:36.346Z,4.07
2023-05-04T12:18:03.595Z,4.13
2023-05-04T12:20:30.291Z,4.00
2023-05-04T12:22:57.717Z,4.10
2023-05-04T12:25:24.570Z,4.30
2023-05-04T12:27:51.370Z,4.63
2023-05-04T12:30:17.877Z,4.43
2023-05-04T12:32:44.534Z,3.95
2023-05-04T12:35:11.119Z,3.47
2023-05-04T12:37:38.163Z,4.00
2023-05-04T12:40:17.354Z,4.15
2023-05-04T12:42:53.978Z,3.95
2023-05-04T12:45:22.419Z,4.07
2023-05-04T12:47:48.976Z,3.63
2023-05-04T12:50:17.820Z,3.90
2023-05-04T12:52:53.609Z,4.28
2023-05-04T12:55:23.387Z,3.72
2023-05-04T12:57:51.374Z,4.10
2023-05-04T13:00:17.911Z,4.47
2023-05-04T13:02:44.834Z,3.80
2023-05-04T13:05:12.917Z,3.90
2023-05-04T13:07:39.419Z,3.13
2023-05-04T13:10:10.532Z,4.07
2023-05-04T13:12:38.523Z,4.13
2023-05-04T13:15:05.510Z,3.45
2023-05-04T13:17:33.898Z,3.53
2023-05-04T13:20:06.151Z,3.55
2023-05-04T13:22:33.028Z,4.10
2023-05-04T13:24:59.552Z,3.88
2023-05-04T13:27:25.941Z,3.22
2023-05-04T13:29:52.292Z,3.67
2023-05-04T13:32:18.780Z,3.60
2023-05-04T13:34:46.993Z,4.22
2023-05-04T13:37:18.098Z,3.95
2023-05-04T13:39:45.489Z,3.58
2023-05-04T13:42:13.087Z,3.85
2023-05-04T13:44:45.797Z,3.28
2023-05-04T13:47:16.481Z,3.20
2023-05-04T13:49:43.218Z,3.65
2023-05-04T13:52:09.628Z,3.38
2023-05-04T13:54:37.098Z,3.47
2023-05-04T13:57:03.844Z,3.60
2023-05-04T13:59:30.299Z,3.42
2023-05-04T14:01:56.778Z,3.65
2023-05-04T14:04:23.412Z,3.55
2023-05-04T14:06:50.784Z,18.75
2023-05-04T14:09:18.255Z,12.90
2023-05-04T14:11:46.215Z,67.63
2023-05-04T14:14:12.594Z,121.10
2023-05-04T14:16:39.086Z,92.10
2023-05-04T14:19:05.475Z,71.35
2023-05-04T14:21:31.962Z,7.90
2023-05-04T14:23:58.362Z,3.53
2023-05-04T14:26:24.705Z,3.90
2023-05-04T14:28:51.077Z,6.07
2023-05-04T14:31:17.498Z,4.25
2023-05-04T14:33:44.102Z,3.60
2023-05-04T14:36:11.100Z,3.92
2023-05-04T14:38:37.743Z,14.27
2023-05-04T14:41:04.832Z,3.70
2023-05-04T14:43:31.362Z,9.18
2023-05-04T14:46:01.441Z,11.15
2023-05-04T14:48:27.905Z,11.68
2023-05-04T14:50:54.944Z,7.03
2023-05-04T14:53:21.760Z,7.53
2023-05-04T14:55:48.615Z,4.88
2023-05-04T14:58:15.778Z,3.78
2023-05-04T15:00:42.368Z,10.88
2023-05-04T15:03:09.342Z,7.60
2023-05-04T15:05:35.872Z,17.92
2023-05-04T15:08:02.402Z,16.38
2023-05-04T15:10:29.090Z,5.70
2023-05-04T15:12:55.867Z,4.78
2023-05-04T15:15:22.300Z,3.05
2023-05-04T15:17:49.447Z,12.40
2023-05-04T15:20:17.053Z,3.28
2023-05-04T15:22:47.191Z,2.78
2023-05-04T15:25:13.560Z,3.33
2023-05-04T15:27:40.752Z,2.80
2023-05-04T15:30:08.926Z,3.35
2023-05-04T15:32:36.986Z,3.85
2023-05-04T15:35:06.230Z,2.67
2023-05-04T15:37:33.424Z,2.75
2023-05-04T15:40:02.226Z,3.28
2023-05-04T15:42:29.190Z,2.92
2023-05-04T15:44:55.564Z,2.28
2023-05-04T15:47:21.990Z,2.28
2023-05-04T15:49:48.546Z,2.97
2023-05-04T15:52:14.901Z,2.60
2023-05-04T15:54:41.280Z,2.88
2023-05-04T15:57:07.768Z,3.38
2023-05-04T15:59:34.094Z,2.85
2023-05-04T16:02:00.594Z,2.65
2023-05-04T16:04:27.857Z,3.40
2023-05-04T16:06:54.405Z,2.45
2023-05-04T16:09:23.087Z,2.83
2023-05-04T16:11:49.956Z,3.00
2023-05-04T16:14:22.029Z,2.95
2023-05-04T16:16:48.746Z,2.97
2023-05-04T16:19:15.402Z,2.97
2023-05-04T16:21:42.482Z,3.13
2023-05-04T16:24:10.022Z,3.10
2023-05-04T16:26:44.030Z,3.00
2023-05-04T16:29:15.096Z,2.58
2023-05-04T16:31:41.806Z,2.40
2023-05-04T16:34:12.934Z,2.38
2023-05-04T16:36:39.628Z,2.17
2023-05-04T16:39:09.812Z,2.70
2023-05-04T16:41:39.310Z,2.85
2023-05-04T16:44:08.804Z,2.58
2023-05-04T16:46:35.653Z,2.70
2023-05-04T16:49:03.322Z,3.17
2023-05-04T16:51:35.245Z,2.83
2023-05-04T16:54:10.361Z,3.20
2023-05-04T16:56:42.660Z,2.50
2023-05-04T16:59:10.259Z,2.65
2023-05-04T17:01:36.849Z,3.20
2023-05-04T17:04:03.332Z,2.30
2023-05-04T17:06:29.774Z,3.13
2023-05-04T17:08:59.380Z,2.95
2023-05-04T17:11:26.724Z,3.25
2023-05-04T17:13:58.900Z,2.58
2023-05-04T17:16:25.900Z,3.08
2023-05-04T17:18:55.214Z,2.38
2023-05-04T17:21:28.234Z,2.10
2023-05-04T17:23:54.849Z,2.80
2023-05-04T17:26:24.043Z,2.90
2023-05-04T17:28:54.482Z,2.92
2023-05-04T17:31:23.987Z,2.65
2023-05-04T17:33:50.714Z,2.40
2023-05-04T17:36:17.481Z,2.95
2023-05-04T17:38:46.330Z,2.35
2023-05-04T17:41:41.771Z,3.10
2023-05-04T17:44:14.975Z,2.53
2023-05-04T17:46:49.520Z,3.30
2023-05-04T17:49:32.978Z,2.50
2023-05-04T17:52:13.656Z,2.92
2023-05-04T17:54:50.252Z,2.78
2023-05-04T17:57:17.761Z,2.25
2023-05-04T17:59:51.716Z,2.72
2023-05-04T18:02:39.145Z,2.90
2023-05-04T18:05:14.977Z,2.60
2023-05-04T18:07:50.293Z,2.75
2023-05-04T18:10:35.056Z,3.05
2023-05-04T18:13:28.637Z,4.18
2023-05-04T18:15:55.275Z,2.70
2023-05-04T18:18:29.489Z,2.25
2023-05-04T18:21:12.383Z,2.47
2023-05-04T18:23:41.144Z,2.67
2023-05-04T18:26:40.459Z,2.88
2023-05-04T18:32:45.367Z,2.75
2023-05-04T18:35:25.272Z,2.85
2023-05-04T18:38:06.407Z,2.45
2023-05-04T18:40:38.758Z,3.22
2023-05-04T18:43:26.603Z,2.70
2023-05-04T18:46:28.553Z,2.55
2023-05-04T18:49:47.607Z,10.77
2023-05-04T18:52:27.087Z,5.60
2023-05-04T18:55:02.201Z,9.32
2023-05-04T18:57:38.964Z,4.68
2023-05-04T19:00:23.888Z,3.13
2023-05-04T19:03:07.772Z,2.97
2023-05-04T19:05:51.207Z,3.03
2023-05-04T19:08:24.568Z,3.30
2023-05-04T19:10:57.463Z,3.30
2023-05-04T19:13:43.517Z,2.90
2023-05-04T19:16:25.583Z,3.40
2023-05-04T19:19:15.073Z,4.22
2023-05-04T19:21:52.047Z,4.18
2023-05-04T19:24:32.787Z,3.63
2023-05-04T19:27:17.761Z,3.53
2023-05-04T19:29:56.233Z,3.28
2023-05-04T19:32:24.827Z,3.35
2023-05-04T19:34:54.983Z,3.72
2023-05-04T19:37:23.595Z,3.40
2023-05-04T19:39:50.810Z,3.33
2023-05-04T19:42:17.665Z,3.30
2023-05-04T19:44:48.395Z,3.28
2023-05-04T19:47:18.136Z,3.35
2023-05-04T19:49:48.067Z,2.67
2023-05-04T19:52:17.043Z,3.10
2023-05-04T19:54:48.561Z,3.13
2023-05-04T19:57:20.805Z,3.53
2023-05-04T20:00:19.670Z,3.38
2023-05-04T20:02:58.384Z,3.63
2023-05-04T20:05:29.741Z,4.70
2023-05-04T20:08:04.200Z,3.67
2023-05-04T20:10:34.508Z,3.20
2023-05-04T20:13:03.793Z,3.15
2023-05-04T20:15:30.287Z,3.50
2023-05-04T20:17:56.872Z,3.20
2023-05-04T20:20:23.363Z,3.30
2023-05-04T20:22:51.948Z,3.85
2023-05-04T20:25:19.673Z,4.03
2023-05-04T20:27:48.367Z,3.30
2023-05-04T20:30:15.150Z,3.80
2023-05-04T20:32:42.616Z,3.20
2023-05-04T20:35:09.335Z,3.45
2023-05-04T20:37:35.813Z,3.30
2023-05-04T20:40:02.184Z,3.55
2023-05-04T20:42:29.115Z,3.38
2023-05-04T20:44:55.504Z,3.17
2023-05-04T20:47:22.011Z,3.85
2023-05-04T20:49:48.394Z,3.67
2023-05-04T20:52:14.745Z,3.33
2023-05-04T20:54:41.368Z,3.35
2023-05-04T20:57:07.927Z,3.30
2023-05-04T20:59:34.366Z,3.55
2023-05-04T21:02:00.824Z,3.70
2023-05-04T21:04:27.180Z,3.10
2023-05-04T21:06:53.630Z,3.40
2023-05-04T21:09:20.002Z,3.90
2023-05-04T21:11:46.438Z,3.47
2023-05-04T21:14:12.899Z,3.05
2023-05-04T21:16:39.346Z,3.42
2023-05-04T21:19:05.861Z,3.13
2023-05-04T21:21:34.607Z,3.70
2023-05-04T21:24:01.277Z,3.83
2023-05-04T21:26:27.691Z,4.05
2023-05-04T21:28:54.120Z,3.65
2023-05-04T21:31:20.529Z,3.22
2023-05-04T21:33:46.939Z,3.42
2023-05-04T21:36:14.356Z,3.10
2023-05-04T21:38:41.355Z,2.85
2023-05-04T21:41:12.442Z,2.80
2023-05-04T21:43:39.014Z,3.08
2023-05-04T21:46:06.662Z,3.00
2023-05-04T21:48:33.499Z,3.28
2023-05-04T21:50:59.980Z,2.97
2023-05-04T21:53:26.381Z,2.95
2023-05-04T21:55:52.737Z,2.80
2023-05-04T21:58:19.097Z,3.13
2023-05-04T22:00:45.897Z,3.08
2023-05-04T22:03:12.368Z,3.75
2023-05-04T22:05:38.694Z,3.25
2023-05-04T22:08:05.063Z,3.10
2023-05-04T22:10:31.447Z,3.25
2023-05-04T22:12:57.873Z,2.88
2023-05-04T22:15:27.517Z,2.97
2023-05-04T22:17:58.156Z,2.53
2023-05-04T22:20:26.582Z,3.83
2023-05-04T22:22:53.239Z,3.15
2023-05-04T22:25:19.746Z,4.10
2023-05-04T22:27:46.255Z,3.50
2023-05-04T22:30:13.151Z,3.55
2023-05-04T22:32:39.615Z,2.67
2023-05-04T22:35:06.426Z,3.17
2023-05-04T22:37:32.857Z,3.33
2023-05-04T22:40:00.265Z,3.63
2023-05-04T22:42:26.730Z,3.20
2023-05-04T22:44:53.068Z,4.38
2023-05-04T22:47:19.494Z,3.42
2023-05-04T22:49:45.826Z,3.72
2023-05-04T22:52:12.529Z,3.08
2023-05-04T22:54:38.946Z,3.35
2023-05-04T22:57:05.328Z,3.13
2023-05-04T22:59:31.694Z,3.08
2023-05-04T23:01:58.305Z,3.25
2023-05-04T23:04:24.963Z,3.05
2023-05-04T23:06:51.349Z,3.20
2023-05-04T23:09:17.736Z,3.25
2023-05-04T23:11:44.253Z,3.03
2023-05-04T23:14:11.696Z,2.83
2023-05-04T23:16:38.444Z,3.70
2023-05-04T23:19:05.185Z,3.58
2023-05-04T23:21:31.566Z,3.03
2023-05-04T23:23:58.195Z,3.13
2023-05-04T23:26:24.560Z,3.10
2023-05-04T23:28:50.958Z,3.38
2023-05-04T23:31:17.371Z,4.15
2023-05-04T23:33:43.911Z,3.60
2023-05-04T23:36:10.474Z,3.17
2023-05-04T23:38:36.908Z,3.05
2023-05-04T23:41:04.124Z,3.65
2023-05-04T23:43:31.668Z,2.85
2023-05-04T23:46:02.897Z,2.85
2023-05-04T23:48:30.743Z,2.90
2023-05-04T23:50:58.355Z,2.83
2023-05-04T23:53:25.956Z,3.15
2023-05-04T23:56:04.513Z,2.88
2023-05-04T23:58:32.518Z,3.03
